Time;durP1;ratioP1;P1;durP2;ratioP2;P2;SDS_P1;SDS_P2;PMS_P1;PMS_P2;Temp;Humidity;BMP_temperature;BMP_pressure;BME280_temperature;BME280_humidity;BME280_pressure;Samples;Min_cycle;Max_cycle;Signal;HPM_P1;HPM_P2
2022/09/14 00:00:05;;;;;;;10.77;3.40;;;;;;;23.31;59.59;100811.50;2076431;28;20050;-74
2022/09/14 00:01:34;;;;;;;6.35;3.90;;;;;;;23.34;59.56;100810.53;2079560;28;20041;-74
2022/09/14 00:02:56;;;;;;;7.38;3.53;;;;;;;23.33;59.61;100817.75;2079381;28;20053;-74
2022/09/14 00:04:20;;;;;;;5.28;3.03;;;;;;;23.31;59.51;100816.91;2073181;28;20511;-74
2022/09/14 00:05:42;;;;;;;6.38;3.35;;;;;;;23.30;59.63;100819.69;2079202;28;20069;-74
2022/09/14 00:07:04;;;;;;;;;;;;;;;23.28;59.74;100818.84;2073895;28;20050;-74
2022/09/14 00:08:26;;;;;;;7.28;3.55;;;;;;;23.28;59.71;100816.16;2078991;28;20416;-74
2022/09/14 00:09:48;;;;;;;6.93;3.22;;;;;;;23.30;59.48;100825.91;2073277;28;20389;-74
2022/09/14 00:11:12;;;;;;;5.70;2.75;;;;;;;23.29;59.69;100821.50;2078751;28;20055;-74
2022/09/14 00:12:36;;;;;;;6.88;3.33;;;;;;;23.28;59.37;100818.84;2082022;28;20034;-74
2022/09/14 00:14:01;;;;;;;6.55;3.65;;;;;;;23.26;59.45;100813.50;2086021;28;20159;-74
2022/09/14 00:15:25;;;;;;;5.30;3.40;;;;;;;23.25;59.41;100813.53;2089638;28;20045;-74
2022/09/14 00:16:46;;;;;;;9.32;3.40;;;;;;;23.22;59.38;100814.56;2081319;28;20108;-74
2022/09/14 00:18:11;;;;;;;7.85;3.58;;;;;;;23.22;59.31;100816.38;2086994;28;20037;-75
2022/09/14 00:19:34;;;;;;;6.13;3.33;;;;;;;23.19;59.15;100811.06;2083637;28;20041;-75
2022/09/14 00:20:58;;;;;;;7.97;2.78;;;;;;;23.18;59.20;100812.00;2086841;28;20094;-74
2022/09/14 00:22:21;;;;;;;4.38;2.83;;;;;;;23.13;59.21;100816.69;2081419;28;20049;-74
2022/09/14 00:23:43;;;;;;;8.38;2.95;;;;;;;23.12;59.19;100817.59;2078774;28;20042;-74
2022/09/14 00:25:07;;;;;;;5.78;2.97;;;;;;;23.12;59.13;100806.84;2089461;28;20069;-75
2022/09/14 00:26:28;;;;;;;5.65;2.58;;;;;;;23.10;59.14;100812.31;2073236;28;20621;-74
2022/09/14 00:27:52;;;;;;;10.05;3.67;;;;;;;23.09;59.10;100807.84;2076517;28;20045;-75
2022/09/14 00:29:14;;;;;;;9.07;2.88;;;;;;;23.07;59.04;100809.69;2070587;28;20087;-75
2022/09/14 00:30:42;;;;;;;5.50;3.38;;;;;;;23.09;59.16;100806.97;2076254;28;20041;-74
2022/09/14 00:32:03;;;;;;;4.38;2.70;;;;;;;23.09;58.90;100815.03;2073413;28;20379;-75
2022/09/14 00:33:25;;;;;;;5.95;3.63;;;;;;;23.11;58.98;100807.75;2076471;28;20532;-74
2022/09/14 00:34:48;;;;;;;6.13;3.15;;;;;;;23.11;58.93;100808.66;2084127;28;20045;-74
2022/09/14 00:36:11;;;;;;;4.75;3.00;;;;;;;23.10;59.00;100814.13;2081524;28;20121;-74
2022/09/14 00:37:33;;;;;;;5.90;2.53;;;;;;;23.08;59.05;100811.47;2078780;28;20428;-74
2022/09/14 00:38:56;;;;;;;7.03;3.15;;;;;;;23.10;59.07;100815.00;2095055;28;20048;-74
2022/09/14 00:40:19;;;;;;;7.10;2.92;;;;;;;23.10;59.04;100808.72;2083852;28;20468;-74
2022/09/14 00:41:47;;;;;;;5.78;2.85;;;;;;;23.07;59.04;100815.09;2087125;28;20056;-74
2022/09/14 00:43:15;;;;;;;7.53;3.25;;;;;;;23.05;59.29;100817.81;2087671;28;20136;-74
2022/09/14 00:45:04;;;;;;;5.85;2.90;;;;;;;23.06;59.33;100818.72;2087516;28;20076;-74
2022/09/14 00:46:29;;;;;;;5.10;3.42;;;;;;;23.04;59.28;100823.25;2081382;28;20049;-74
2022/09/14 00:47:53;;;;;;;9.82;4.35;;;;;;;23.05;59.37;100822.34;2088980;28;20048;-74
2022/09/14 00:49:17;;;;;;;6.95;3.03;;;;;;;23.04;59.46;100817.88;2088552;28;20041;-74
2022/09/14 00:50:40;;;;;;;7.22;2.80;;;;;;;23.04;59.61;100821.44;2097159;28;20068;-74
2022/09/14 00:52:07;;;;;;;5.85;3.15;;;;;;;23.07;59.71;100819.59;2091053;28;20071;-74
2022/09/14 00:53:31;;;;;;;11.23;3.58;;;;;;;23.05;59.61;100817.81;2089046;28;20045;-74
2022/09/14 00:54:56;;;;;;;6.80;3.15;;;;;;;23.05;59.70;100817.81;2097154;28;20032;-74
2022/09/14 00:56:19;;;;;;;7.80;2.92;;;;;;;23.04;59.74;100823.25;2091208;28;20530;-74
2022/09/14 00:57:43;;;;;;;8.23;3.03;;;;;;;23.05;59.81;100819.63;2096920;28;20056;-74
2022/09/14 00:59:13;;;;;;;4.32;2.88;;;;;;;23.05;60.08;100815.13;2090934;28;20455;-74
2022/09/14 01:00:35;;;;;;;6.68;3.03;;;;;;;23.07;60.11;100827.66;2097538;28;20146;-74
2022/09/14 01:01:57;;;;;;;5.25;2.92;;;;;;;23.05;59.99;100819.63;2082595;28;20489;-73
2022/09/14 01:03:19;;;;;;;7.40;3.53;;;;;;;23.04;60.12;100821.44;2093912;28;20158;-74
2022/09/14 01:04:41;;;;;;;7.30;3.08;;;;;;;23.02;60.28;100809.88;2082706;28;20504;-74
2022/09/14 01:06:16;;;;;;;9.13;3.22;;;;;;;23.03;60.21;100813.44;2085958;28;20511;-74
2022/09/14 01:08:01;;;;;;;4.82;2.72;;;;;;;22.99;60.64;100818.03;2091087;28;20049;-74
2022/09/14 01:09:34;;;;;;;6.38;2.63;;;;;;;23.01;60.70;100818.00;2090770;28;20041;-74
2022/09/14 01:11:12;;;;;;;4.90;2.78;;;;;;;23.02;60.56;100826.03;2098196;28;20044;-74
2022/09/14 01:12:39;;;;;;;7.05;3.22;;;;;;;23.02;60.61;100817.94;2099013;28;20038;-74
2022/09/14 01:14:08;;;;;;;8.20;3.20;;;;;;;23.03;60.81;100819.72;2090710;28;20463;-74
2022/09/14 01:15:37;;;;;;;4.30;3.08;;;;;;;23.02;61.01;100817.94;2097537;28;20032;-74
2022/09/14 01:17:07;;;;;;;10.60;3.92;;;;;;;23.02;61.01;100811.69;2082747;28;20061;-74
2022/09/14 01:18:36;;;;;;;7.57;3.22;;;;;;;23.01;61.04;100821.56;2089170;28;20037;-74
2022/09/14 01:20:14;;;;;;;7.07;2.90;;;;;;;23.03;61.30;100817.03;2089149;28;20406;-74
2022/09/14 01:21:40;;;;;;;6.18;2.83;;;;;;;23.02;61.28;100811.69;2098753;28;20052;-74
2022/09/14 01:23:11;;;;;;;6.18;2.92;;;;;;;23.04;61.23;100815.19;2090928;28;20068;-74
2022/09/14 01:24:43;;;;;;;5.57;2.47;;;;;;;23.04;61.14;100820.56;2089540;28;20037;-74
2022/09/14 01:26:33;;;;;;;6.10;3.45;;;;;;;23.03;61.01;100825.09;2082712;28;20478;-74
2022/09/14 01:28:01;;;;;;;8.60;3.22;;;;;;;23.02;61.20;100823.34;2090948;28;20488;-74
2022/09/14 01:29:27;;;;;;;9.93;3.13;;;;;;;23.02;61.12;100817.94;2090776;28;20048;-73
2022/09/14 01:30:53;;;;;;;6.20;3.00;;;;;;;23.02;61.18;100817.94;2096968;28;20451;-73
2022/09/14 01:32:20;;;;;;;7.10;2.92;;;;;;;22.99;61.13;100823.44;2090818;28;20040;-74
2022/09/14 01:33:48;;;;;;;7.20;2.60;;;;;;;23.00;60.98;100819.81;2096850;28;20437;-74
2022/09/14 01:35:16;;;;;;;6.20;2.47;;;;;;;23.02;60.93;100823.34;2090862;28;20056;-74
2022/09/14 01:36:43;;;;;;;6.18;3.25;;;;;;;23.03;60.79;100825.09;2097106;28;20381;-74
2022/09/14 01:38:10;;;;;;;5.43;2.72;;;;;;;23.01;60.94;100824.25;2082434;28;20060;-74
2022/09/14 01:39:36;;;;;;;10.55;3.30;;;;;;;23.02;60.95;100825.16;2088767;28;20049;-74
2022/09/14 01:41:03;;;;;;;7.22;3.25;;;;;;;23.01;61.01;100818.88;2080515;28;20049;-74
2022/09/14 01:42:27;;;;;;;5.50;3.28;;;;;;;23.00;60.82;100810.84;2080543;28;20029;-75
2022/09/14 01:43:55;;;;;;;6.50;2.50;;;;;;;23.01;60.81;100821.56;2086061;28;20060;-74
2022/09/14 01:45:19;;;;;;;5.35;2.55;;;;;;;23.03;60.62;100819.72;2080531;28;20045;-74
2022/09/14 01:46:46;;;;;;;10.57;3.15;;;;;;;23.05;60.58;100816.94;2094160;28;20451;-74
2022/09/14 01:48:11;;;;;;;6.25;2.95;;;;;;;23.04;60.55;100821.44;2090627;28;20098;-73
2022/09/14 01:49:38;;;;;;;7.10;2.95;;;;;;;23.03;60.37;100816.13;2096818;28;20048;-74
2022/09/14 01:51:05;;;;;;;6.43;3.05;;;;;;;23.01;60.43;100816.19;2082334;28;20057;-74
2022/09/14 01:52:33;;;;;;;8.35;3.05;;;;;;;23.01;60.34;100810.81;2095129;28;20082;-74
2022/09/14 01:54:02;;;;;;;7.20;3.20;;;;;;;23.00;60.13;100819.81;2098683;28;20087;-74
2022/09/14 01:55:28;;;;;;;6.53;3.30;;;;;;;23.01;60.17;100812.59;2090589;28;20136;-74
2022/09/14 01:56:56;;;;;;;4.88;3.00;;;;;;;23.05;59.88;100816.94;2088522;28;20049;-75
2022/09/14 01:58:24;;;;;;;7.28;2.75;;;;;;;23.05;59.67;100807.06;2088694;28;20048;-74
2022/09/14 01:59:53;;;;;;;9.32;3.58;;;;;;;23.05;59.60;100823.22;2089046;28;20140;-74
2022/09/14 02:01:21;;;;;;;6.78;3.38;;;;;;;23.05;59.66;100814.25;2097016;28;20052;-74
2022/09/14 02:02:48;;;;;;;9.57;3.60;;;;;;;23.04;59.66;100815.19;2082262;28;20095;-74
2022/09/14 02:04:16;;;;;;;5.07;3.35;;;;;;;23.02;59.38;100812.56;2094839;28;20083;-75
2022/09/14 02:05:46;;;;;;;10.15;3.95;;;;;;;23.02;59.49;100820.66;2090757;28;20465;-74
2022/09/14 02:07:08;;;;;;;6.25;3.50;;;;;;;22.98;59.60;100827.06;2097219;28;20053;-74
2022/09/14 02:08:32;;;;;;;7.70;3.28;;;;;;;22.96;59.70;100823.56;2082187;28;20124;-74
2022/09/14 02:09:56;;;;;;;4.82;3.13;;;;;;;22.95;59.63;100832.56;2093869;28;20528;-74
2022/09/14 02:11:18;;;;;;;5.60;3.13;;;;;;;22.92;59.65;100831.75;2090483;28;20055;-74
2022/09/14 02:12:41;;;;;;;8.02;3.67;;;;;;;22.91;59.76;100830.88;2087900;28;20033;-74
2022/09/14 02:14:04;;;;;;;7.20;3.55;;;;;;;22.91;59.71;100830.88;2096211;28;20145;-74
2022/09/14 02:15:28;;;;;;;8.18;3.40;;;;;;;22.91;59.44;100830.00;2082082;28;20183;-74
2022/09/14 02:16:50;;;;;;;6.60;3.30;;;;;;;22.91;59.21;100830.00;2088014;28;20037;-75
2022/09/14 02:18:13;;;;;;;5.60;3.72;;;;;;;22.91;58.94;100830.88;2087663;28;20041;-74
2022/09/14 02:19:40;;;;;;;8.57;3.60;;;;;;;22.94;58.79;100835.28;2096030;28;20077;-75
2022/09/14 02:21:08;;;;;;;9.65;3.42;;;;;;;22.93;58.81;100837.09;2082230;28;20054;-74
2022/09/14 02:22:32;;;;;;;7.85;4.20;;;;;;;22.92;58.70;100843.41;2095301;28;20432;-74
2022/09/14 02:23:55;;;;;;;8.70;4.43;;;;;;;22.92;58.52;100842.53;2090164;28;20464;-74
2022/09/14 02:25:16;;;;;;;5.75;3.25;;;;;;;22.88;58.60;100831.00;2090462;28;20140;-74
2022/09/14 02:26:40;;;;;;;6.85;3.63;;;;;;;22.85;58.66;100838.28;2090201;28;20068;-75
2022/09/14 02:28:02;;;;;;;5.93;3.53;;;;;;;22.82;58.55;100836.59;2096169;28;20098;-74
2022/09/14 02:29:24;;;;;;;;;;;;;;;22.80;58.57;100837.56;2099003;28;20052;-74
2022/09/14 02:30:55;;;;;;;9.88;6.35;;;;;;;22.78;58.62;100834.91;2090336;28;19929;-74
2022/09/14 02:32:28;;;;;;;6.87;4.60;;;;;;;22.80;58.56;100830.38;2097017;28;20151;-74
2022/09/14 02:33:58;;;;;;;6.63;4.20;;;;;;;22.83;58.40;100829.41;2090202;28;20282;-74
2022/09/14 02:35:26;;;;;;;9.93;4.05;;;;;;;22.82;58.69;100835.72;2088866;28;20045;-75
2022/09/14 02:36:54;;;;;;;8.00;4.35;;;;;;;22.82;58.59;100841.97;2088495;28;20144;-74
2022/09/14 02:38:26;;;;;;;6.45;4.10;;;;;;;22.82;58.64;100835.72;2088541;28;20052;-74
2022/09/14 02:39:59;;;;;;;7.78;4.43;;;;;;;22.80;58.89;100841.16;2097273;28;20443;-73
2022/09/14 02:41:25;;;;;;;;;;;;;;;22.76;58.96;100830.53;2090754;28;20045;-74
2022/09/14 02:42:58;;;;;;;6.47;4.25;;;;;;;22.76;59.04;100838.63;2096419;28;19971;-74
2022/09/14 02:44:28;;;;;;;5.93;4.10;;;;;;;22.76;59.16;100842.19;2081926;28;20645;-74
2022/09/14 02:46:01;;;;;;;7.15;4.28;;;;;;;22.75;59.23;100845.81;2095272;28;20045;-74
2022/09/14 02:47:30;;;;;;;6.15;4.10;;;;;;;22.75;59.30;100844.94;2089826;28;20041;-74
2022/09/14 02:49:11;;;;;;;6.35;3.17;;;;;;;22.74;59.36;100848.53;2096932;28;20095;-73
2022/09/14 02:50:38;;;;;;;7.05;4.30;;;;;;;22.77;59.23;100845.75;2090237;28;20477;-73
2022/09/14 02:52:06;;;;;;;7.57;4.30;;;;;;;22.78;59.24;100839.41;2096602;28;20048;-73
2022/09/14 02:53:35;;;;;;;9.07;4.68;;;;;;;22.78;59.11;100842.13;2090010;28;20053;-74
2022/09/14 02:55:00;;;;;;;5.70;3.92;;;;;;;22.78;59.20;100852.88;2096760;28;20049;-74
2022/09/14 02:56:23;;;;;;;8.50;4.30;;;;;;;22.77;58.96;100845.75;2098416;28;20143;-74
2022/09/14 02:58:02;;;;;;;9.13;5.07;;;;;;;22.75;59.03;100840.41;2090155;28;20089;-74
2022/09/14 02:59:25;;;;;;;8.20;4.35;;;;;;;22.73;59.02;100844.09;2097834;28;20045;-73
2022/09/14 03:00:49;;;;;;;9.85;4.15;;;;;;;22.75;58.85;100850.31;2090257;28;20049;-74
2022/09/14 03:02:13;;;;;;;8.35;3.78;;;;;;;22.76;58.75;100855.66;2087696;28;20044;-74
2022/09/14 03:03:34;;;;;;;5.85;3.92;;;;;;;22.75;58.65;100853.00;2095642;28;20041;-73
2022/09/14 03:04:57;;;;;;;7.88;3.80;;;;;;;22.75;58.63;100856.56;2090032;28;20139;-74
2022/09/14 03:06:19;;;;;;;7.18;3.45;;;;;;;22.75;58.55;100853.00;2087513;28;20136;-74
2022/09/14 03:07:42;;;;;;;6.88;3.53;;;;;;;22.73;58.69;100853.03;2087491;28;20140;-74
2022/09/14 03:09:04;;;;;;;7.43;3.92;;;;;;;22.74;58.56;100852.13;2086933;28;20419;-73
2022/09/14 03:10:26;;;;;;;9.20;4.28;;;;;;;22.74;58.64;100853.94;2081834;28;20080;-74
2022/09/14 03:11:49;;;;;;;7.13;3.25;;;;;;;22.71;58.55;100856.72;2093261;28;20085;-74
2022/09/14 03:13:11;;;;;;;9.25;2.95;;;;;;;22.72;58.74;100863.81;2081694;28;20098;-74
2022/09/14 03:14:33;;;;;;;4.90;3.45;;;;;;;22.69;58.67;100856.75;2093009;28;20041;-74
2022/09/14 03:15:56;;;;;;;8.25;3.35;;;;;;;22.71;58.70;100864.78;2081808;28;20050;-74
2022/09/14 03:17:21;;;;;;;6.43;3.65;;;;;;;22.73;58.55;100858.44;2079288;28;20045;-74
2022/09/14 03:18:43;;;;;;;7.70;3.28;;;;;;;22.73;58.49;100857.53;2085214;28;20083;-74
2022/09/14 03:20:05;;;;;;;7.68;3.75;;;;;;;22.72;58.58;100856.63;2089873;28;20045;-75
2022/09/14 03:21:28;;;;;;;4.78;3.30;;;;;;;22.71;58.53;100854.00;2095656;28;20044;-74
2022/09/14 03:22:49;;;;;;;5.97;3.38;;;;;;;22.71;58.50;100852.16;2081533;28;20473;-74
2022/09/14 03:24:11;;;;;;;5.20;3.00;;;;;;;22.70;58.50;100855.81;2092867;28;20122;-75
2022/09/14 03:25:38;;;;;;;8.18;3.65;;;;;;;22.67;58.53;100848.72;2081606;28;20045;-74
2022/09/14 03:27:01;;;;;;;4.78;3.50;;;;;;;22.65;58.53;100857.75;2079699;28;20104;-74
2022/09/14 03:28:23;;;;;;;6.70;3.30;;;;;;;22.64;58.55;100859.56;2084976;28;20033;-74
2022/09/14 03:29:46;;;;;;;6.88;3.13;;;;;;;22.63;58.55;100862.34;2087264;28;20044;-74
2022/09/14 03:31:10;;;;;;;8.43;3.50;;;;;;;22.64;58.47;100862.25;2079099;28;20429;-75
2022/09/14 03:32:33;;;;;;;7.45;3.85;;;;;;;22.63;58.30;100865.91;2093658;28;20040;-74
2022/09/14 03:33:57;;;;;;;7.20;3.25;;;;;;;22.61;58.36;100865.06;2089728;28;20107;-74
2022/09/14 03:35:20;;;;;;;6.32;3.55;;;;;;;22.61;58.36;100866.88;2079269;28;20057;-74
2022/09/14 03:36:42;;;;;;;9.07;3.70;;;;;;;22.61;58.36;100869.56;2079256;28;20047;-74
2022/09/14 03:38:04;;;;;;;6.20;3.50;;;;;;;22.59;58.37;100868.72;2092880;28;20052;-74
2022/09/14 03:39:26;;;;;;;5.43;3.25;;;;;;;22.58;58.34;100875.91;2081469;28;20072;-74
2022/09/14 03:40:48;;;;;;;5.70;3.55;;;;;;;22.57;58.26;100874.19;2087275;28;20045;-74
2022/09/14 03:42:09;;;;;;;7.00;3.17;;;;;;;22.59;58.31;100876.78;2081604;28;20123;-74
2022/09/14 03:43:32;;;;;;;6.85;3.10;;;;;;;22.57;58.24;100879.56;2084414;28;20494;-74
2022/09/14 03:44:55;;;;;;;7.93;3.55;;;;;;;22.56;58.29;100876.91;2095519;28;20101;-74
2022/09/14 03:46:19;;;;;;;6.63;3.42;;;;;;;22.57;58.25;100874.19;2081562;28;20053;-74
2022/09/14 03:47:42;;;;;;;5.05;3.28;;;;;;;22.58;58.13;100872.34;2087313;28;20098;-75
2022/09/14 03:49:05;;;;;;;8.38;3.72;;;;;;;22.58;58.10;100875.91;2089863;28;20053;-74
2022/09/14 03:50:27;;;;;;;4.15;2.85;;;;;;;22.59;57.96;100876.78;2095492;28;20036;-75
2022/09/14 03:51:50;;;;;;;4.40;2.97;;;;;;;22.56;57.89;100869.72;2081628;28;20049;-74
2022/09/14 03:53:11;;;;;;;5.25;2.67;;;;;;;22.57;57.98;100867.91;2092950;28;20040;-74
2022/09/14 03:54:34;;;;;;;6.63;3.70;;;;;;;22.57;58.11;100876.00;2098199;28;20136;-74
2022/09/14 03:55:55;;;;;;;5.13;3.22;;;;;;;22.56;58.15;100883.19;2089791;28;20140;-74
2022/09/14 03:57:18;;;;;;;5.50;3.22;;;;;;;22.55;58.31;100872.44;2095559;28;20496;-74
2022/09/14 03:58:41;;;;;;;7.53;3.58;;;;;;;22.55;58.39;100872.44;2065205;28;20042;-74
2022/09/14 04:00:05;;;;;;;7.20;3.85;;;;;;;22.54;58.71;100873.38;2088656;28;20087;-74
2022/09/14 04:01:33;;;;;;;5.93;3.80;;;;;;;22.50;58.73;100871.72;2089663;28;20064;-74
2022/09/14 04:03:01;;;;;;;6.63;3.92;;;;;;;22.50;58.87;100869.91;2095379;28;20488;-74
2022/09/14 04:04:22;;;;;;;8.75;3.55;;;;;;;22.48;59.00;100878.97;2081575;28;20469;-75
2022/09/14 04:05:54;;;;;;;6.18;3.38;;;;;;;22.49;59.34;100878.03;2092600;28;20194;-74
2022/09/14 04:07:16;;;;;;;7.07;3.15;;;;;;;22.51;59.30;100876.19;2089639;28;20102;-74
2022/09/14 04:08:41;;;;;;;5.82;3.40;;;;;;;22.55;59.26;100883.22;2078857;28;20049;-74
2022/09/14 04:10:04;;;;;;;7.10;3.10;;;;;;;22.56;59.30;100875.09;2085133;28;20045;-74
2022/09/14 04:11:27;;;;;;;5.35;3.17;;;;;;;22.57;59.27;100879.56;2089745;28;20472;-74
2022/09/14 04:12:48;;;;;;;7.05;3.55;;;;;;;22.61;58.97;100885.72;2087196;28;20048;-74
2022/09/14 04:14:11;;;;;;;8.05;3.30;;;;;;;22.61;58.92;100885.72;2095178;28;20040;-74
2022/09/14 04:15:33;;;;;;;5.47;3.00;;;;;;;22.64;58.70;100872.19;2089531;28;20041;-74
2022/09/14 04:16:55;;;;;;;8.13;3.97;;;;;;;22.66;58.82;100879.25;2089580;28;20428;-74
2022/09/14 04:18:18;;;;;;;7.82;3.08;;;;;;;22.71;58.82;100881.78;2087028;28;20106;-74
2022/09/14 04:19:41;;;;;;;9.18;3.13;;;;;;;22.75;58.93;100888.88;2095274;28;20482;-74
2022/09/14 04:21:06;;;;;;;8.48;3.20;;;;;;;22.83;58.85;100894.03;2082562;28;20041;-74
2022/09/14 04:22:28;;;;;;;7.53;3.42;;;;;;;22.93;58.57;100895.47;2095070;28;20143;-75
2022/09/14 04:23:53;;;;;;;5.32;3.08;;;;;;;23.02;58.66;100887.09;2091145;28;20095;-74
2022/09/14 04:25:15;;;;;;;6.15;3.25;;;;;;;23.12;58.55;100890.34;2091193;28;20057;-75
2022/09/14 04:26:38;;;;;;;5.10;2.88;;;;;;;23.21;58.44;100881.94;2091421;28;20044;-74
2022/09/14 04:27:59;;;;;;;5.13;2.90;;;;;;;23.29;58.41;100885.28;2088838;28;20520;-74
2022/09/14 04:29:22;;;;;;;4.47;3.03;;;;;;;23.37;58.11;100886.75;2088329;28;20060;-74
2022/09/14 04:30:44;;;;;;;6.45;2.95;;;;;;;23.45;57.88;100892.75;2080582;28;20053;-74
2022/09/14 04:32:07;;;;;;;5.30;2.83;;;;;;;23.56;57.58;100891.53;2094321;28;20467;-74
2022/09/14 04:33:32;;;;;;;6.03;3.05;;;;;;;23.61;57.59;100890.44;2082879;28;20053;-75
2022/09/14 04:34:55;;;;;;;7.35;2.92;;;;;;;23.65;57.35;100889.38;2086754;28;20048;-74
2022/09/14 04:36:19;;;;;;;7.82;2.83;;;;;;;23.65;57.17;100888.50;2080537;28;20046;-75
2022/09/14 04:37:41;;;;;;;4.97;3.40;;;;;;;23.64;57.31;100889.41;2086762;28;20515;-75
2022/09/14 04:39:03;;;;;;;4.75;2.65;;;;;;;23.65;57.12;100897.47;2088463;28;20065;-75
2022/09/14 04:40:27;;;;;;;7.07;3.28;;;;;;;23.73;57.28;100892.69;2083081;28;20480;-75
2022/09/14 04:41:50;;;;;;;7.32;3.45;;;;;;;23.83;57.22;100888.69;2094791;28;20057;-75
2022/09/14 04:43:11;;;;;;;7.63;2.95;;;;;;;23.95;57.10;100897.28;2099285;28;20484;-75
2022/09/14 04:44:34;;;;;;;6.55;3.08;;;;;;;24.06;56.99;100895.06;2083030;28;20083;-74
2022/09/14 04:46:01;;;;;;;5.53;2.65;;;;;;;24.18;56.96;100895.47;2094077;28;20418;-75
2022/09/14 04:47:24;;;;;;;6.90;3.10;;;;;;;24.30;56.72;100896.84;2099138;28;20040;-75
2022/09/14 04:48:47;;;;;;;5.47;2.72;;;;;;;24.35;56.33;100902.94;2082883;28;20058;-75
2022/09/14 04:50:10;;;;;;;5.18;3.00;;;;;;;24.40;56.14;100910.88;2094577;28;20070;-74
2022/09/14 04:51:32;;;;;;;4.72;2.45;;;;;;;24.43;56.20;100905.31;2091193;28;20045;-75
2022/09/14 04:52:55;;;;;;;6.13;3.03;;;;;;;24.45;55.98;100911.56;2096923;28;20147;-75
2022/09/14 04:54:18;;;;;;;8.95;2.65;;;;;;;24.49;56.02;100905.09;2082682;28;20045;-75
2022/09/14 04:55:40;;;;;;;5.45;2.80;;;;;;;24.57;56.06;100903.84;2086273;28;20160;-74
2022/09/14 04:57:02;;;;;;;10.35;3.75;;;;;;;24.65;55.51;100906.25;2082997;28;20140;-74
2022/09/14 04:58:24;;;;;;;8.32;3.03;;;;;;;24.70;55.10;100916.84;2094256;28;20052;-75
2022/09/14 04:59:46;;;;;;;6.18;2.90;;;;;;;24.72;54.97;100912.28;2082808;28;20037;-74
2022/09/14 05:01:10;;;;;;;8.50;2.83;;;;;;;24.80;54.77;100918.25;2077952;28;20053;-74
2022/09/14 05:02:32;;;;;;;4.68;3.03;;;;;;;24.87;54.25;100912.56;2086456;28;20095;-74
2022/09/14 05:03:57;;;;;;;6.95;3.03;;;;;;;24.90;54.18;100917.84;2088252;28;20111;-74
2022/09/14 05:05:20;;;;;;;4.07;2.78;;;;;;;24.95;54.16;100914.94;2097032;28;20508;-74
2022/09/14 05:06:44;;;;;;;5.78;2.50;;;;;;;25.06;53.76;100912.69;2082891;28;20049;-74
2022/09/14 05:08:05;;;;;;;8.13;2.72;;;;;;;25.18;53.74;100916.69;2080571;28;20485;-74
2022/09/14 05:09:28;;;;;;;7.22;2.83;;;;;;;25.30;53.35;100919.75;2077433;28;20061;-74
2022/09/14 05:10:53;;;;;;;8.65;2.97;;;;;;;25.46;53.11;100927.22;2085892;28;20049;-74
2022/09/14 05:12:16;;;;;;;8.15;3.08;;;;;;;25.58;52.93;100926.72;2097001;28;20048;-75
2022/09/14 05:13:37;;;;;;;6.22;2.88;;;;;;;25.72;52.68;100921.59;2090871;28;20153;-74
2022/09/14 05:15:00;;;;;;;4.70;2.55;;;;;;;25.84;52.33;100926.44;2096754;28;20053;-74
2022/09/14 05:16:24;;;;;;;4.50;2.60;;;;;;;25.95;52.07;100926.81;2082776;28;20037;-75
2022/09/14 05:17:46;;;;;;;6.63;2.72;;;;;;;26.06;52.06;100927.22;2094544;28;20049;-74
2022/09/14 05:19:14;;;;;;;4.95;2.42;;;;;;;26.17;51.63;100930.31;2090730;28;20451;-75
2022/09/14 05:20:36;;;;;;;6.28;2.65;;;;;;;26.26;51.55;100928.16;2097405;28;20095;-74
2022/09/14 05:21:59;;;;;;;4.80;3.17;;;;;;;26.35;51.63;100928.59;2082713;28;20527;-75
2022/09/14 05:23:20;;;;;;;4.93;2.28;;;;;;;26.46;51.05;100919.97;2085682;28;20049;-74
2022/09/14 05:24:43;;;;;;;5.38;2.38;;;;;;;26.49;50.68;100918.00;2082698;28;20128;-74
2022/09/14 05:26:06;;;;;;;6.75;2.47;;;;;;;26.52;50.50;100933.22;2094417;28;20063;-74
2022/09/14 05:27:29;;;;;;;3.20;2.13;;;;;;;26.59;50.09;100940.09;2082679;28;20042;-75
2022/09/14 05:28:54;;;;;;;3.95;2.30;;;;;;;26.68;49.96;100938.78;2093936;28;20075;-74
2022/09/14 05:30:16;;;;;;;6.18;2.42;;;;;;;26.76;49.95;100942.91;2090880;28;20094;-74
2022/09/14 05:31:39;;;;;;;2.95;2.25;;;;;;;26.85;49.59;100941.53;2088185;28;20071;-75
2022/09/14 05:33:00;;;;;;;3.80;2.40;;;;;;;26.95;49.50;100940.19;2087761;28;20041;-74
2022/09/14 05:34:24;;;;;;;3.75;2.55;;;;;;;27.07;49.29;100934.16;2088142;28;20053;-74
2022/09/14 05:35:46;;;;;;;4.50;2.88;;;;;;;27.18;49.16;100939.03;2088398;28;20044;-74
2022/09/14 05:37:08;;;;;;;5.28;2.85;;;;;;;27.26;48.74;100934.97;2088146;28;20041;-74
2022/09/14 05:38:29;;;;;;;5.18;2.33;;;;;;;27.37;48.40;100937.16;2088200;28;20525;-75
2022/09/14 05:39:53;;;;;;;4.68;2.45;;;;;;;27.46;48.38;100942.09;2088170;28;20405;-75
2022/09/14 05:41:15;;;;;;;5.63;2.40;;;;;;;27.58;48.04;100936.06;2082584;28;20042;-75
2022/09/14 05:42:37;;;;;;;4.35;2.63;;;;;;;27.67;47.87;100943.75;2093805;28;20058;-74
2022/09/14 05:44:00;;;;;;;3.88;2.17;;;;;;;27.79;47.54;100938.63;2098808;28;20484;-75
2022/09/14 05:45:21;;;;;;;12.40;2.97;;;;;;;27.93;47.17;100933.34;2082587;28;20041;-74
2022/09/14 05:46:44;;;;;;;4.32;2.50;;;;;;;28.05;46.55;100941.69;2093491;28;20040;-74
2022/09/14 05:48:06;;;;;;;3.58;1.70;;;;;;;28.15;46.13;100942.13;2090797;28;20052;-74
2022/09/14 05:49:30;;;;;;;7.15;2.70;;;;;;;28.14;45.79;100934.94;2096488;28;20045;-74
2022/09/14 05:50:57;;;;;;;9.10;3.08;;;;;;;28.16;45.45;100938.41;2082599;28;20061;-74
2022/09/14 05:52:20;;;;;;;5.00;2.50;;;;;;;28.20;45.23;100947.28;2095390;28;20071;-74
2022/09/14 05:53:43;;;;;;;7.05;2.45;;;;;;;28.25;44.98;100950.63;2082216;28;20061;-74
2022/09/14 05:55:06;;;;;;;7.20;2.90;;;;;;;28.30;44.99;100951.25;2093824;28;20041;-74
2022/09/14 05:56:30;;;;;;;3.60;2.60;;;;;;;28.34;45.19;100950.13;2082555;28;20099;-74
2022/09/14 05:57:51;;;;;;;8.65;2.70;;;;;;;28.39;45.22;100948.91;2094224;28;20052;-74
2022/09/14 05:59:14;;;;;;;3.72;2.53;;;;;;;28.49;45.06;100950.16;2082441;28;20405;-75
2022/09/14 06:00:38;;;;;;;3.70;2.65;;;;;;;28.58;44.65;100937.00;2093554;28;20097;-75
2022/09/14 06:02:03;;;;;;;5.95;2.50;;;;;;;28.64;44.46;100951.13;2082174;28;20049;-75
2022/09/14 06:03:25;;;;;;;6.57;2.60;;;;;;;28.76;44.23;100955.03;2088189;28;20067;-75
2022/09/14 06:04:49;;;;;;;4.40;2.70;;;;;;;28.85;44.11;100951.78;2088000;28;20056;-75
2022/09/14 06:06:13;;;;;;;3.50;2.55;;;;;;;28.88;44.13;100944.31;2096307;28;20040;-74
2022/09/14 06:07:35;;;;;;;5.38;2.42;;;;;;;28.98;44.06;100951.97;2082336;28;20046;-74
2022/09/14 06:08:58;;;;;;;5.13;2.88;;;;;;;29.04;43.83;100954.31;2093551;28;20048;-75
2022/09/14 06:10:22;;;;;;;4.57;2.70;;;;;;;29.13;43.84;100951.09;2082233;28;20087;-74
2022/09/14 06:11:44;;;;;;;5.50;3.00;;;;;;;29.25;43.50;100950.34;2094031;28;20048;-74
2022/09/14 06:13:06;;;;;;;4.68;2.80;;;;;;;29.35;43.17;100953.44;2082142;28;20461;-75
2022/09/14 06:14:29;;;;;;;5.50;2.83;;;;;;;29.44;42.99;100959.22;2093568;28;20039;-74
2022/09/14 06:15:51;;;;;;;4.85;2.80;;;;;;;29.45;42.74;100966.41;2090364;28;20053;-75
2022/09/14 06:17:13;;;;;;;5.00;2.65;;;;;;;29.51;42.34;100962.44;2090462;28;20049;-75
2022/09/14 06:18:39;;;;;;;4.18;2.25;;;;;;;29.54;42.32;100963.13;2087788;28;20052;-75
2022/09/14 06:20:04;;;;;;;4.88;2.53;;;;;;;29.57;42.23;100956.63;2088423;28;20144;-74
2022/09/14 06:21:30;;;;;;;4.70;2.85;;;;;;;29.53;42.24;100965.97;2082246;28;20099;-75
2022/09/14 06:22:53;;;;;;;5.63;3.13;;;;;;;29.52;42.29;100965.09;2094445;28;20048;-74
2022/09/14 06:24:15;;;;;;;4.03;2.60;;;;;;;29.66;42.48;100967.84;2090295;28;20520;-75
2022/09/14 06:25:36;;;;;;;2.92;2.63;;;;;;;29.82;41.96;100964.19;2090538;28;20040;-75
2022/09/14 06:26:59;;;;;;;4.50;2.35;;;;;;;29.95;41.83;100971.53;2087671;28;20451;-74
2022/09/14 06:28:20;;;;;;;3.50;2.35;;;;;;;30.03;41.24;100961.06;2096105;28;20044;-74
2022/09/14 06:29:43;;;;;;;3.90;3.17;;;;;;;30.05;41.33;100977.31;2090449;28;20059;-75
2022/09/14 06:31:06;;;;;;;5.68;2.65;;;;;;;30.05;41.14;100971.84;2087914;28;20082;-74
2022/09/14 06:32:30;;;;;;;4.50;2.85;;;;;;;30.05;41.27;100978.19;2087840;28;20053;-75
2022/09/14 06:33:52;;;;;;;3.92;2.92;;;;;;;30.07;41.20;100965.31;2087910;28;20079;-74